Mississippi Voyager — WDD7294 — position and weather

sailwx.info

Track history (hours):
 
Tides and Currents Weather Stations Pressure Air Temp Water Temp Dewpoint Dewpoint Depression Visibility Wind Speed Wind Dir Waves Ship Positions

Mississippi Voyager

Owner: Chevron USA Inc., Washington, DC. More information available from US FCC via Universal Licensing System and Coast Guard Vessel Documentation Center.

Last reported at 2018-Apr-26 01:30 UTC. Time now 2018-Apr-26 01:42 UTC.
Position N 33°56' W 121°08'.

Length 183 m; draft 9.2 m.

Type: Tanker. MMSI: 366962000.

Date/timePositionNaut miles runAvg speedWind from/ knotsBaromVisibWave heightAir tempDewpointWater temp
2018-Apr-26 01:30N 33°56' W 121°08'713.8
2018-Apr-26 01:01N 33°59' W 121°16'713.7
2018-Apr-26 00:31N 34°02' W 121°23'713.4
2018-Apr-26 00:00N 34°05' W 121°31'713.4
2018-Apr-25 23:30N 34°08' W 121°38'2 4.0
2018-Apr-25 23:00N 34°09' W 121°36'712.9
2018-Apr-25 22:30N 34°06' W 121°29'612.9
2018-Apr-25 22:00N 34°03' W 121°22'612.8
2018-Apr-25 21:30N 34°01' W 121°15'612.1
2018-Apr-25 21:00N 33°56' W 121°10'510.2
2018-Apr-25 20:30N 33°53' W 121°05'510.7
2018-Apr-25 20:00N 33°57' W 121°09'713.3
2018-Apr-25 19:30N 34°00' W 121°16'713.3
2018-Apr-25 18:58N 34°03' W 121°24'612.7
2018-Apr-25 18:28N 34°07' W 121°30'713.3
2018-Apr-25 17:55N 34°13' W 121°35'613.2
2018-Apr-25 17:26N 34°18' W 121°39'613.1
2018-Apr-25 17:00N 34°23' W 121°43'713.4
2018-Apr-25 16:30N 34°29' W 121°47'713.1
2018-Apr-25 16:00N 34°35' W 121°49'813.2
2018-Apr-25 15:24N 34°43' W 121°50'513.2
2018-Apr-25 15:00N 34°49' W 121°51'1311.3
2018-Apr-25 13:50N 34°54' W 122°06'513.2
2018-Apr-25 13:28N 34°58' W 122°09'613.2
2018-Apr-25 12:59N 35°04' W 122°13'913.4
2018-Apr-25 12:19N 35°12' W 122°18'413.5
2018-Apr-25 12:00N 35°15' W 122°21'713.1
2018-Apr-25 11:28N 35°21' W 122°25'613.3
2018-Apr-25 11:00N 35°26' W 122°29'713.4
2018-Apr-25 10:30N 35°32' W 122°34'713.4
2018-Apr-25 09:59N 35°38' W 122°38'713.6
2018-Apr-25 09:30N 35°44' W 122°42'713.5
2018-Apr-25 09:00N 35°49' W 122°47'713.5
2018-Apr-25 08:30N 35°55' W 122°51'713.6
2018-Apr-25 08:00N 36°01' W 122°55'713.7
2018-Apr-25 07:30N 36°07' W 122°60'713.8
2018-Apr-25 07:00N 36°13' W 123°04'713.7
2018-Apr-25 06:30N 36°18' W 123°09'713.2
2018-Apr-25 06:00N 36°25' W 123°12'713.9
2018-Apr-25 05:30N 36°31' W 123°11'713.9
2018-Apr-25 05:00N 36°38' W 123°10'714.1
2018-Apr-25 04:31N 36°45' W 123°09'713.7
2018-Apr-25 04:00N 36°52' W 123°09'713.7
2018-Apr-25 03:31N 36°59' W 123°08'713.5
2018-Apr-25 02:59N 37°06' W 123°07'613.2
2018-Apr-25 02:30N 37°12' W 123°06'713.4
2018-Apr-25 02:00N 37°19' W 123°06'713.8
2018-Apr-25 01:31N 37°26' W 123°05'713.7
2018-Apr-25 01:00N 37°33' W 123°04'612.6
2018-Apr-25 00:30N 37°37' W 122°58'713.5
2018-Apr-25 00:01N 37°41' W 122°51'713.5
2018-Apr-24 23:30N 37°45' W 122°44'712.8
2018-Apr-24 23:00N 37°47' W 122°36'612.7
2018-Apr-24 22:30N 37°49' W 122°29'4 7.9
2018-Apr-24 22:00N 37°50' W 122°24'4 8.9
2018-Apr-24 21:30N 37°46' W 122°22'0 0.6
2018-Apr-24 20:59N 37°46' W 122°21'0 0.1
2018-Apr-24 20:29N 37°46' W 122°21'0 0.0
2018-Apr-24 19:59N 37°46' W 122°21'0 0.0
2018-Apr-24 19:29N 37°46' W 122°21'0 0.1
2018-Apr-24 18:59N 37°46' W 122°21'0 0.0
2018-Apr-24 18:29N 37°46' W 122°21'0 0.1
2018-Apr-24 17:59N 37°46' W 122°21'0 0.0
2018-Apr-24 17:29N 37°46' W 122°21'0 0.0
2018-Apr-24 16:59N 37°46' W 122°21'0 0.1
2018-Apr-24 16:29N 37°46' W 122°21'0 0.3
2018-Apr-24 15:59N 37°46' W 122°21'0 0.1
2018-Apr-24 15:30N 37°45' W 122°21'0 0.3
2018-Apr-24 15:00N 37°46' W 122°21'2 4.4
2018-Apr-24 14:30N 37°48' W 122°23'5 9.8
2018-Apr-24 14:00N 37°52' W 122°25'3 6.5
2018-Apr-24 13:31N 37°55' W 122°25'0 0.2
2018-Apr-24 12:52N 37°55' W 122°25'0 0.0
2018-Apr-24 12:28N 37°55' W 122°25'0 0.0
2018-Apr-24 11:58N 37°55' W 122°25'0 0.0
2018-Apr-24 11:28N 37°55' W 122°25'0 0.0
2018-Apr-24 10:58N 37°55' W 122°25'0 0.0
2018-Apr-24 10:25N 37°55' W 122°25'0 0.0
2018-Apr-24 09:58N 37°55' W 122°25'0 0.0
2018-Apr-24 09:28N 37°55' W 122°25'0 0.0
2018-Apr-24 08:58N 37°55' W 122°25'0 0.0
2018-Apr-24 08:28N 37°55' W 122°25'0 0.0
2018-Apr-24 07:58N 37°55' W 122°25'0 0.0
2018-Apr-24 07:28N 37°55' W 122°25'0 0.0
2018-Apr-24 06:58N 37°55' W 122°25'0 0.0
2018-Apr-24 06:28N 37°55' W 122°25'0 0.0
2018-Apr-24 05:55N 37°55' W 122°25'0 0.0
2018-Apr-24 05:28N 37°55' W 122°25'0 0.0
2018-Apr-24 04:58N 37°55' W 122°25'0 0.0
2018-Apr-24 04:28N 37°55' W 122°25'0 0.0
2018-Apr-24 03:58N 37°55' W 122°25'0 0.0
2018-Apr-24 03:28N 37°55' W 122°25'0 0.0
2018-Apr-24 02:58N 37°55' W 122°25'0 0.0
2018-Apr-24 02:28N 37°55' W 122°25'0 0.0
2018-Apr-24 01:58N 37°55' W 122°25'0 0.0
2018-Apr-24 01:28N 37°55' W 122°25'0 0.0
2018-Apr-24 00:58N 37°55' W 122°25'0 0.0
2018-Apr-24 00:28N 37°55' W 122°25'0 0.0
2018-Apr-23 23:58N 37°55' W 122°25'0 0.0
2018-Apr-23 23:28N 37°55' W 122°25'0 0.0
2018-Apr-23 22:55N 37°55' W 122°25'0 0.0
2018-Apr-23 22:28N 37°55' W 122°25'0 0.0
2018-Apr-23 21:52N 37°55' W 122°25'0 0.0
2018-Apr-23 21:28N 37°55' W 122°25'0 0.0
2018-Apr-23 20:58N 37°55' W 122°25'0 0.0
2018-Apr-23 20:28N 37°55' W 122°25'0 0.0
2018-Apr-23 19:58N 37°55' W 122°25'0 0.0
2018-Apr-23 19:28N 37°55' W 122°25'0 0.0
2018-Apr-23 18:58N 37°55' W 122°25'0 0.0
2018-Apr-23 18:28N 37°55' W 122°25'0 0.0
2018-Apr-23 17:58N 37°55' W 122°25'0 0.0
2018-Apr-23 17:28N 37°55' W 122°25'0 0.0
2018-Apr-23 16:58N 37°55' W 122°25'0 0.0
2018-Apr-23 16:22N 37°55' W 122°25'0 0.0
2018-Apr-23 15:58N 37°55' W 122°25'0 0.0
2018-Apr-23 15:28N 37°55' W 122°25'0 0.0
2018-Apr-23 14:58N 37°55' W 122°25'0 0.0
2018-Apr-23 14:28N 37°55' W 122°25'0 0.0
2018-Apr-23 13:58N 37°55' W 122°25'0 0.0
2018-Apr-23 13:25N 37°55' W 122°25'0 0.0
2018-Apr-23 12:52N 37°55' W 122°25'0 0.0
2018-Apr-23 12:25N 37°55' W 122°25'0 0.0
2018-Apr-23 11:55N 37°55' W 122°25'0 0.0
2018-Apr-23 11:28N 37°55' W 122°25'0 0.0
2018-Apr-23 10:58N 37°55' W 122°25'0 0.0
2018-Apr-23 10:28N 37°55' W 122°25'0 0.0
2018-Apr-23 09:55N 37°55' W 122°25'0 0.0
2018-Apr-23 09:28N 37°55' W 122°25'0 0.0
2018-Apr-23 08:58N 37°55' W 122°25'0 0.0
2018-Apr-23 08:28N 37°55' W 122°25'0 0.0
2018-Apr-23 07:55N 37°55' W 122°25'0 0.0
2018-Apr-23 07:28N 37°55' W 122°25'0 0.0
2018-Apr-23 06:58N 37°55' W 122°25'0 0.0
2018-Apr-23 06:28N 37°55' W 122°25'0 0.0
2018-Apr-23 05:58N 37°55' W 122°25'0 0.0
2018-Apr-23 05:28N 37°55' W 122°25'0 0.0
2018-Apr-23 05:00N 37°55' W 122°25'1 1.2
2018-Apr-23 04:30N 37°55' W 122°25'2 4.8
2018-Apr-23 04:00N 37°54' W 122°22'1 1.4
2018-Apr-23 03:30N 37°55' W 122°22'0 0.2
2018-Apr-23 02:58N 37°55' W 122°22'0 0.0
2018-Apr-23 02:28N 37°55' W 122°22'0 0.0
2018-Apr-23 01:58N 37°55' W 122°22'0 0.0
2018-Apr-23 01:28N 37°55' W 122°22'0 0.0
2018-Apr-23 00:58N 37°55' W 122°22'0 0.0
2018-Apr-23 00:28N 37°55' W 122°22'0 0.0
2018-Apr-22 23:58N 37°55' W 122°22'0 0.0
2018-Apr-22 23:28N 37°55' W 122°22'0 0.0
2018-Apr-22 22:58N 37°55' W 122°22'0 0.0
2018-Apr-22 22:28N 37°55' W 122°22'0 0.0
2018-Apr-22 21:58N 37°55' W 122°22'0 0.0
2018-Apr-22 21:28N 37°55' W 122°22'0 0.0
2018-Apr-22 20:58N 37°55' W 122°22'0 0.0
2018-Apr-22 20:28N 37°55' W 122°22'0 0.0
2018-Apr-22 19:58N 37°55' W 122°22'0 0.0
2018-Apr-22 19:28N 37°55' W 122°22'0 0.0
2018-Apr-22 18:58N 37°55' W 122°22'0 0.0
2018-Apr-22 18:25N 37°55' W 122°22'0 0.0
2018-Apr-22 17:58N 37°55' W 122°22'0 0.0
2018-Apr-22 17:28N 37°55' W 122°22'0 0.0
2018-Apr-22 16:58N 37°55' W 122°22'0 0.6
2018-Apr-22 16:30N 37°55' W 122°22'2 3.4
2018-Apr-22 16:00N 37°54' W 122°24'1 1.8
2018-Apr-22 15:28N 37°55' W 122°25'0 0.0
2018-Apr-22 14:58N 37°55' W 122°25'0 0.0
2018-Apr-22 14:28N 37°55' W 122°25'0 0.0
2018-Apr-22 13:58N 37°55' W 122°25'0 0.0
2018-Apr-22 13:25N 37°55' W 122°25'0 0.0
2018-Apr-22 12:58N 37°55' W 122°25'0 0.0
2018-Apr-22 12:28N 37°55' W 122°25'0 0.0
2018-Apr-22 11:58N 37°55' W 122°25'0 0.0
2018-Apr-22 11:28N 37°55' W 122°25'0 0.0
2018-Apr-22 10:58N 37°55' W 122°25'0 0.0
2018-Apr-22 10:28N 37°55' W 122°25'0 0.0
2018-Apr-22 09:58N 37°55' W 122°25'0 0.0
2018-Apr-22 09:28N 37°55' W 122°25'0 0.0
2018-Apr-22 08:58N 37°55' W 122°25'0 0.0
2018-Apr-22 08:28N 37°55' W 122°25'0 0.0
2018-Apr-22 07:58N 37°55' W 122°25'0 0.0
2018-Apr-22 07:28N 37°55' W 122°25'0 0.0
2018-Apr-22 06:58N 37°55' W 122°25'0 0.0
2018-Apr-22 06:28N 37°55' W 122°25'0 0.0
2018-Apr-22 05:58N 37°55' W 122°25'0 0.0
2018-Apr-22 05:28N 37°55' W 122°25'0 0.0
2018-Apr-22 04:58N 37°55' W 122°25'0 0.0
2018-Apr-22 04:28N 37°55' W 122°25'0 0.0
2018-Apr-22 03:58N 37°55' W 122°25'0 0.0
2018-Apr-22 03:28N 37°55' W 122°25'0 0.0
2018-Apr-22 02:58N 37°55' W 122°25'0 0.0
2018-Apr-22 02:28N 37°55' W 122°25'0 0.0
2018-Apr-22 01:58N 37°55' W 122°25'0 0.0
2018-Apr-22 01:28N 37°55' W 122°25'0 0.0
2018-Apr-22 00:58N 37°55' W 122°25'0 0.0
2018-Apr-22 00:28N 37°55' W 122°25'0 0.0
2018-Apr-21 23:58N 37°55' W 122°25'0 0.0
2018-Apr-21 23:28N 37°55' W 122°25'0 0.0
2018-Apr-21 22:58N 37°55' W 122°25'0 0.0
2018-Apr-21 22:28N 37°55' W 122°25'0 0.0
2018-Apr-21 21:55N 37°55' W 122°25'0 0.0
2018-Apr-21 21:28N 37°55' W 122°25'0 0.0
2018-Apr-21 20:58N 37°55' W 122°25'0 0.0
2018-Apr-21 20:28N 37°55' W 122°25'0 0.0
2018-Apr-21 19:58N 37°55' W 122°25'0 0.0
2018-Apr-21 19:28N 37°55' W 122°25'0 0.0
2018-Apr-21 18:58N 37°55' W 122°25'0 0.0
2018-Apr-21 18:28N 37°55' W 122°25'0 0.0
2018-Apr-21 17:58N 37°55' W 122°25'0 0.0
2018-Apr-21 17:28N 37°55' W 122°25'0 0.0
2018-Apr-21 16:58N 37°55' W 122°25'0 0.0
2018-Apr-21 16:25N 37°55' W 122°25'0 0.0
2018-Apr-21 15:55N 37°55' W 122°25'0 0.0
2018-Apr-21 15:25N 37°55' W 122°25'0 0.0
2018-Apr-21 14:58N 37°55' W 122°25'0 0.0
2018-Apr-21 14:25N 37°55' W 122°25'0 0.0
2018-Apr-21 13:55N 37°55' W 122°25'0 0.0
2018-Apr-21 13:28N 37°55' W 122°25'0 0.0
2018-Apr-21 12:58N 37°55' W 122°25'0 0.0
2018-Apr-21 12:28N 37°55' W 122°25'0 0.0
2018-Apr-21 11:58N 37°55' W 122°25'0 0.0
2018-Apr-21 11:28N 37°55' W 122°25'0 0.0
2018-Apr-21 10:58N 37°55' W 122°25'0 0.0
2018-Apr-21 10:28N 37°55' W 122°25'0 0.0
2018-Apr-21 09:58N 37°55' W 122°25'0 0.0
2018-Apr-21 09:28N 37°55' W 122°25'0 0.0
2018-Apr-21 08:58N 37°55' W 122°25'0 0.0
2018-Apr-21 08:28N 37°55' W 122°25'0 0.0
2018-Apr-21 07:58N 37°55' W 122°25'0 0.0
2018-Apr-21 07:28N 37°55' W 122°25'0 0.0
2018-Apr-21 06:58N 37°55' W 122°25'0 0.0
2018-Apr-21 06:28N 37°55' W 122°25'0 0.0
2018-Apr-21 05:58N 37°55' W 122°25'0 0.0
2018-Apr-21 05:28N 37°55' W 122°25'0 0.0
2018-Apr-21 04:58N 37°55' W 122°25'0 0.0
2018-Apr-21 04:28N 37°55' W 122°25'0 0.0
2018-Apr-21 03:58N 37°55' W 122°25'0 0.0
2018-Apr-21 03:28N 37°55' W 122°25'0 0.0
2018-Apr-21 02:58N 37°55' W 122°25'0 0.0
2018-Apr-21 02:28N 37°55' W 122°25'0 0.0
2018-Apr-21 01:58N 37°55' W 122°25'0 0.0
2018-Apr-21 01:30N 37°55' W 122°25'1 2.3
2018-Apr-21 01:00N 37°54' W 122°25'4 7.4
2018-Apr-21 00:30N 37°51' W 122°26'510.1
2018-Apr-21 00:00N 37°48' W 122°32'612.8
2018-Apr-20 23:31N 37°45' W 122°39'713.1
2018-Apr-20 23:00N 37°41' W 122°46'713.4
2018-Apr-20 22:30N 37°38' W 122°53'713.5
2018-Apr-20 22:00N 37°34' W 122°60'611.6
2018-Apr-20 21:30N 37°29' W 123°03'612.3
2018-Apr-20 21:00N 37°23' W 123°04'612.5
2018-Apr-20 20:30N 37°16' W 123°03'612.3
2018-Apr-20 19:59N 37°10' W 123°03'612.1
2018-Apr-20 19:28N 37°04' W 123°02'712.1
2018-Apr-20 18:54N 36°57' W 123°02'512.0
2018-Apr-20 18:30N 36°52' W 123°01'3 5.8
2018-Apr-20 17:59N 36°49' W 123°01'3 5.5
2018-Apr-20 17:29N 36°46' W 123°01'611.9
2018-Apr-20 16:58N 36°40' W 123°00'511.8
2018-Apr-20 16:30N 36°35' W 122°60'611.8
2018-Apr-20 15:59N 36°29' W 122°59'912.0
2018-Apr-20 15:16N 36°20' W 122°59'311.9
2018-Apr-20 15:00N 36°17' W 122°59'5011.8
2018-Apr-20 10:46N 35°31' W 122°33'312.1
2018-Apr-20 10:30N 35°29' W 122°31'612.1
2018-Apr-20 10:00N 35°23' W 122°27'4012.2
2018-Apr-20 06:43N 34°49' W 122°02'311.9
2018-Apr-20 06:29N 34°47' W 122°00'1011.9
2018-Apr-20 05:36N 34°38' W 121°53'511.9
2018-Apr-20 05:12N 34°34' W 121°50'311.8
2018-Apr-20 04:55N 34°31' W 121°48'511.9
2018-Apr-20 04:30N 34°27' W 121°45'912.1
2018-Apr-20 03:46N 34°19' W 121°40'712.0
2018-Apr-20 03:11N 34°13' W 121°35'212.1
2018-Apr-20 03:00N 34°11' W 121°34'812.2
2018-Apr-20 02:22N 34°05' W 121°29'512.6
2018-Apr-20 02:00N 34°03' W 121°24'612.4
2018-Apr-20 01:30N 34°00' W 121°17'612.4
2018-Apr-20 01:00N 33°58' W 121°10'612.4
2018-Apr-20 00:30N 33°55' W 121°03'612.2
2018-Apr-20 00:00N 33°53' W 120°57'611.6
2018-Apr-19 23:30N 33°50' W 120°50'611.5
2018-Apr-19 23:00N 33°48' W 120°44'611.6
2018-Apr-19 22:30N 33°46' W 120°38'712.1
2018-Apr-19 21:57N 33°43' W 120°30'612.6
2018-Apr-19 21:30N 33°41' W 120°24'712.4
2018-Apr-19 20:58N 33°39' W 120°17'612.1
2018-Apr-19 20:27N 33°39' W 120°09'612.1
2018-Apr-19 19:58N 33°39' W 120°02'612.4
2018-Apr-19 19:30N 33°39' W 119°55'612.1
2018-Apr-19 18:59N 33°40' W 119°48'611.9
2018-Apr-19 18:30N 33°40' W 119°41'612.2
2018-Apr-19 18:00N 33°41' W 119°34'612.8
2018-Apr-19 17:30N 33°42' W 119°26'613.0
2018-Apr-19 17:00N 33°42' W 119°18'713.0
2018-Apr-19 16:29N 33°43' W 119°10'612.7
2018-Apr-19 16:00N 33°44' W 119°03'611.9
2018-Apr-19 15:30N 33°44' W 118°56'611.7
2018-Apr-19 15:00N 33°44' W 118°49'910.5
2018-Apr-19 14:07N 33°49' W 118°40'12 0.3
2018-Apr-17 17:27N 33°55' W 118°27'5 2.7
2018-Apr-17 15:44N 33°51' W 118°30'2 7.3
2018-Apr-17 15:28N 33°49' W 118°30'4 7.7
2018-Apr-17 15:00N 33°45' W 118°30'3 6.7
2018-Apr-17 14:30N 33°42' W 118°28'5 7.2
2018-Apr-17 13:51N 33°40' W 118°24'3 7.2
2018-Apr-17 13:24N 33°38' W 118°20'4 8.6
2018-Apr-17 12:55N 33°39' W 118°15'4 8.5
2018-Apr-17 12:30N 33°42' W 118°13'0 0.5
2018-Apr-17 12:00N 33°42' W 118°13'0 0.0
2018-Apr-17 11:30N 33°42' W 118°13'0 0.0
2018-Apr-17 11:00N 33°42' W 118°13'0 0.1
2018-Apr-17 10:27N 33°42' W 118°13'0 0.0
2018-Apr-17 10:00N 33°42' W 118°13'0 0.1
2018-Apr-17 09:27N 33°42' W 118°13'0 0.0
2018-Apr-17 08:54N 33°42' W 118°13'0 0.1
2018-Apr-17 08:27N 33°42' W 118°13'0 0.1
2018-Apr-17 07:54N 33°42' W 118°13'0 0.0
2018-Apr-17 07:27N 33°42' W 118°13'0 0.0
2018-Apr-17 07:00N 33°42' W 118°13'0 0.1
2018-Apr-17 06:30N 33°42' W 118°13'0 0.1
2018-Apr-17 06:00N 33°42' W 118°13'0 0.1
2018-Apr-17 05:30N 33°42' W 118°13'0 0.1
2018-Apr-17 05:00N 33°42' W 118°13'0 0.0
2018-Apr-17 04:03N 33°42' W 118°13'0 0.4
2018-Apr-17 04:00N 33°42' W 118°13'0 0.0
2018-Apr-17 03:30N 33°42' W 118°13'0 0.0
2018-Apr-17 03:00N 33°42' W 118°13'0 0.0
2018-Apr-17 02:30N 33°42' W 118°13'0 0.1
2018-Apr-17 01:57N 33°42' W 118°13'0 0.1
2018-Apr-17 01:30N 33°42' W 118°13'0 0.0
2018-Apr-17 01:00N 33°42' W 118°13'0 0.1
2018-Apr-17 00:30N 33°42' W 118°13'0 0.0
2018-Apr-17 00:00N 33°42' W 118°13'0 0.0
2018-Apr-16 23:30N 33°42' W 118°13'0 0.0
2018-Apr-16 23:00N 33°42' W 118°13'0 0.0
2018-Apr-16 22:30N 33°42' W 118°13'0 0.0
2018-Apr-16 22:00N 33°42' W 118°13'0 0.0
2018-Apr-16 21:30N 33°42' W 118°13'0 0.0
2018-Apr-16 21:00N 33°42' W 118°13'0 0.0
2018-Apr-16 20:30N 33°42' W 118°13'0 0.0
2018-Apr-16 20:00N 33°42' W 118°13'0 0.0
2018-Apr-16 19:30N 33°42' W 118°13'0 0.0
2018-Apr-16 19:00N 33°42' W 118°13'0 0.0
2018-Apr-16 18:30N 33°42' W 118°13'0 0.0
2018-Apr-16 18:00N 33°42' W 118°13'0 0.0
2018-Apr-16 17:30N 33°42' W 118°13'0 0.0
2018-Apr-16 16:57N 33°42' W 118°13'0 0.0
2018-Apr-16 16:27N 33°42' W 118°13'0 0.0
2018-Apr-16 15:57N 33°42' W 118°13'0 0.0
2018-Apr-16 15:30N 33°42' W 118°13'0 0.0
2018-Apr-16 15:00N 33°42' W 118°13'0 0.1
2018-Apr-16 14:27N 33°42' W 118°13'0 0.1
2018-Apr-16 14:00N 33°42' W 118°13'0 0.0
2018-Apr-16 13:30N 33°42' W 118°13'0 0.0
2018-Apr-16 12:57N 33°42' W 118°13'0 0.0
2018-Apr-16 12:30N 33°42' W 118°13'0 0.0
2018-Apr-16 11:42N 33°42' W 118°13'0 0.0
2018-Apr-16 11:30N 33°42' W 118°13'0 0.0
2018-Apr-16 10:21N 33°42' W 118°13'0 0.1
2018-Apr-16 10:00N 33°42' W 118°13'0 0.0
2018-Apr-16 09:27N 33°42' W 118°13'0 0.1
2018-Apr-16 09:00N 33°42' W 118°13'0 0.1
2018-Apr-16 08:30N 33°42' W 118°13'0 0.0
2018-Apr-16 07:57N 33°42' W 118°13'0 0.0
2018-Apr-16 07:30N 33°42' W 118°13'0 0.0
2018-Apr-16 06:57N 33°42' W 118°13'0 0.1
2018-Apr-16 06:30N 33°42' W 118°13'0 0.0
2018-Apr-16 06:00N 33°42' W 118°13'0 0.0
2018-Apr-16 05:30N 33°42' W 118°13'0 0.0
2018-Apr-16 05:00N 33°42' W 118°13'0 0.0
2018-Apr-16 04:30N 33°42' W 118°13'0 0.0
2018-Apr-16 04:00N 33°42' W 118°13'0 0.0
2018-Apr-16 03:30N 33°42' W 118°13'0 0.0
2018-Apr-16 03:00N 33°42' W 118°13'0 0.0
2018-Apr-16 02:28N 33°42' W 118°13'0 0.0
2018-Apr-16 01:58N 33°42' W 118°13'  
Track history (hours):
 
Tides and Currents Weather Stations Pressure Air Temp Water Temp Dewpoint Dewpoint Depression Visibility Wind Speed Wind Dir Waves Ship Positions

Mississippi Voyager

Owner: Chevron USA Inc., Washington, DC. More information available from US FCC via Universal Licensing System and Coast Guard Vessel Documentation Center.

Last reported at 2018-Apr-26 01:30 UTC. Time now 2018-Apr-26 01:42 UTC.
Position N 33°56' W 121°08'.

Length 183 m; draft 9.2 m.

Type: Tanker. MMSI: 366962000.

Date/timePositionNaut miles runAvg speedWind from/ knotsBaromVisibWave heightAir tempDewpointWater temp
2018-Apr-26 01:30N 33°56' W 121°08'713.8
2018-Apr-26 01:01N 33°59' W 121°16'713.7
2018-Apr-26 00:31N 34°02' W 121°23'713.4
2018-Apr-26 00:00N 34°05' W 121°31'713.4
2018-Apr-25 23:30N 34°08' W 121°38'2 4.0
2018-Apr-25 23:00N 34°09' W 121°36'712.9
2018-Apr-25 22:30N 34°06' W 121°29'612.9
2018-Apr-25 22:00N 34°03' W 121°22'612.8
2018-Apr-25 21:30N 34°01' W 121°15'612.1
2018-Apr-25 21:00N 33°56' W 121°10'510.2
2018-Apr-25 20:30N 33°53' W 121°05'510.7
2018-Apr-25 20:00N 33°57' W 121°09'713.3
2018-Apr-25 19:30N 34°00' W 121°16'713.3
2018-Apr-25 18:58N 34°03' W 121°24'612.7
2018-Apr-25 18:28N 34°07' W 121°30'713.3
2018-Apr-25 17:55N 34°13' W 121°35'613.2
2018-Apr-25 17:26N 34°18' W 121°39'613.1
2018-Apr-25 17:00N 34°23' W 121°43'713.4
2018-Apr-25 16:30N 34°29' W 121°47'713.1
2018-Apr-25 16:00N 34°35' W 121°49'813.2
2018-Apr-25 15:24N 34°43' W 121°50'513.2
2018-Apr-25 15:00N 34°49' W 121°51'1311.3
2018-Apr-25 13:50N 34°54' W 122°06'513.2
2018-Apr-25 13:28N 34°58' W 122°09'613.2
2018-Apr-25 12:59N 35°04' W 122°13'913.4
2018-Apr-25 12:19N 35°12' W 122°18'413.5
2018-Apr-25 12:00N 35°15' W 122°21'713.1
2018-Apr-25 11:28N 35°21' W 122°25'613.3
2018-Apr-25 11:00N 35°26' W 122°29'713.4
2018-Apr-25 10:30N 35°32' W 122°34'713.4
2018-Apr-25 09:59N 35°38' W 122°38'713.6
2018-Apr-25 09:30N 35°44' W 122°42'713.5
2018-Apr-25 09:00N 35°49' W 122°47'713.5
2018-Apr-25 08:30N 35°55' W 122°51'713.6
2018-Apr-25 08:00N 36°01' W 122°55'713.7
2018-Apr-25 07:30N 36°07' W 122°60'713.8
2018-Apr-25 07:00N 36°13' W 123°04'713.7
2018-Apr-25 06:30N 36°18' W 123°09'713.2
2018-Apr-25 06:00N 36°25' W 123°12'713.9
2018-Apr-25 05:30N 36°31' W 123°11'713.9
2018-Apr-25 05:00N 36°38' W 123°10'714.1
2018-Apr-25 04:31N 36°45' W 123°09'713.7
2018-Apr-25 04:00N 36°52' W 123°09'713.7
2018-Apr-25 03:31N 36°59' W 123°08'713.5
2018-Apr-25 02:59N 37°06' W 123°07'613.2
2018-Apr-25 02:30N 37°12' W 123°06'713.4
2018-Apr-25 02:00N 37°19' W 123°06'713.8
2018-Apr-25 01:31N 37°26' W 123°05'713.7
2018-Apr-25 01:00N 37°33' W 123°04'612.6
2018-Apr-25 00:30N 37°37' W 122°58'713.5
2018-Apr-25 00:01N 37°41' W 122°51'713.5
2018-Apr-24 23:30N 37°45' W 122°44'712.8
2018-Apr-24 23:00N 37°47' W 122°36'612.7
2018-Apr-24 22:30N 37°49' W 122°29'4 7.9
2018-Apr-24 22:00N 37°50' W 122°24'4 8.9
2018-Apr-24 21:30N 37°46' W 122°22'0 0.6
2018-Apr-24 20:59N 37°46' W 122°21'0 0.1
2018-Apr-24 20:29N 37°46' W 122°21'0 0.0
2018-Apr-24 19:59N 37°46' W 122°21'0 0.0
2018-Apr-24 19:29N 37°46' W 122°21'0 0.1
2018-Apr-24 18:59N 37°46' W 122°21'0 0.0
2018-Apr-24 18:29N 37°46' W 122°21'0 0.1
2018-Apr-24 17:59N 37°46' W 122°21'0 0.0
2018-Apr-24 17:29N 37°46' W 122°21'0 0.0
2018-Apr-24 16:59N 37°46' W 122°21'0 0.1
2018-Apr-24 16:29N 37°46' W 122°21'0 0.3
2018-Apr-24 15:59N 37°46' W 122°21'0 0.1
2018-Apr-24 15:30N 37°45' W 122°21'0 0.3
2018-Apr-24 15:00N 37°46' W 122°21'2 4.4
2018-Apr-24 14:30N 37°48' W 122°23'5 9.8
2018-Apr-24 14:00N 37°52' W 122°25'3 6.5
2018-Apr-24 13:31N 37°55' W 122°25'0 0.2
2018-Apr-24 12:52N 37°55' W 122°25'0 0.0
2018-Apr-24 12:28N 37°55' W 122°25'0 0.0
2018-Apr-24 11:58N 37°55' W 122°25'0 0.0
2018-Apr-24 11:28N 37°55' W 122°25'0 0.0
2018-Apr-24 10:58N 37°55' W 122°25'0 0.0
2018-Apr-24 10:25N 37°55' W 122°25'0 0.0
2018-Apr-24 09:58N 37°55' W 122°25'0 0.0
2018-Apr-24 09:28N 37°55' W 122°25'0 0.0
2018-Apr-24 08:58N 37°55' W 122°25'0 0.0
2018-Apr-24 08:28N 37°55' W 122°25'0 0.0
2018-Apr-24 07:58N 37°55' W 122°25'0 0.0
2018-Apr-24 07:28N 37°55' W 122°25'0 0.0
2018-Apr-24 06:58N 37°55' W 122°25'0 0.0
2018-Apr-24 06:28N 37°55' W 122°25'0 0.0
2018-Apr-24 05:55N 37°55' W 122°25'0 0.0
2018-Apr-24 05:28N 37°55' W 122°25'0 0.0
2018-Apr-24 04:58N 37°55' W 122°25'0 0.0
2018-Apr-24 04:28N 37°55' W 122°25'0 0.0
2018-Apr-24 03:58N 37°55' W 122°25'0 0.0
2018-Apr-24 03:28N 37°55' W 122°25'0 0.0
2018-Apr-24 02:58N 37°55' W 122°25'0 0.0
2018-Apr-24 02:28N 37°55' W 122°25'0 0.0
2018-Apr-24 01:58N 37°55' W 122°25'0 0.0
2018-Apr-24 01:28N 37°55' W 122°25'0 0.0
2018-Apr-24 00:58N 37°55' W 122°25'0 0.0
2018-Apr-24 00:28N 37°55' W 122°25'0 0.0
2018-Apr-23 23:58N 37°55' W 122°25'0 0.0
2018-Apr-23 23:28N 37°55' W 122°25'0 0.0
2018-Apr-23 22:55N 37°55' W 122°25'0 0.0
2018-Apr-23 22:28N 37°55' W 122°25'0 0.0
2018-Apr-23 21:52N 37°55' W 122°25'0 0.0
2018-Apr-23 21:28N 37°55' W 122°25'0 0.0
2018-Apr-23 20:58N 37°55' W 122°25'0 0.0
2018-Apr-23 20:28N 37°55' W 122°25'0 0.0
2018-Apr-23 19:58N 37°55' W 122°25'0 0.0
2018-Apr-23 19:28N 37°55' W 122°25'0 0.0
2018-Apr-23 18:58N 37°55' W 122°25'0 0.0
2018-Apr-23 18:28N 37°55' W 122°25'0 0.0
2018-Apr-23 17:58N 37°55' W 122°25'0 0.0
2018-Apr-23 17:28N 37°55' W 122°25'0 0.0
2018-Apr-23 16:58N 37°55' W 122°25'0 0.0
2018-Apr-23 16:22N 37°55' W 122°25'0 0.0
2018-Apr-23 15:58N 37°55' W 122°25'0 0.0
2018-Apr-23 15:28N 37°55' W 122°25'0 0.0
2018-Apr-23 14:58N 37°55' W 122°25'0 0.0
2018-Apr-23 14:28N 37°55' W 122°25'0 0.0
2018-Apr-23 13:58N 37°55' W 122°25'0 0.0
2018-Apr-23 13:25N 37°55' W 122°25'0 0.0
2018-Apr-23 12:52N 37°55' W 122°25'0 0.0
2018-Apr-23 12:25N 37°55' W 122°25'0 0.0
2018-Apr-23 11:55N 37°55' W 122°25'0 0.0
2018-Apr-23 11:28N 37°55' W 122°25'0 0.0
2018-Apr-23 10:58N 37°55' W 122°25'0 0.0
2018-Apr-23 10:28N 37°55' W 122°25'0 0.0
2018-Apr-23 09:55N 37°55' W 122°25'0 0.0
2018-Apr-23 09:28N 37°55' W 122°25'0 0.0
2018-Apr-23 08:58N 37°55' W 122°25'0 0.0
2018-Apr-23 08:28N 37°55' W 122°25'0 0.0
2018-Apr-23 07:55N 37°55' W 122°25'0 0.0
2018-Apr-23 07:28N 37°55' W 122°25'0 0.0
2018-Apr-23 06:58N 37°55' W 122°25'0 0.0
2018-Apr-23 06:28N 37°55' W 122°25'0 0.0
2018-Apr-23 05:58N 37°55' W 122°25'0 0.0
2018-Apr-23 05:28N 37°55' W 122°25'0 0.0
2018-Apr-23 05:00N 37°55' W 122°25'1 1.2
2018-Apr-23 04:30N 37°55' W 122°25'2 4.8
2018-Apr-23 04:00N 37°54' W 122°22'1 1.4
2018-Apr-23 03:30N 37°55' W 122°22'0 0.2
2018-Apr-23 02:58N 37°55' W 122°22'0 0.0
2018-Apr-23 02:28N 37°55' W 122°22'0 0.0
2018-Apr-23 01:58N 37°55' W 122°22'0 0.0
2018-Apr-23 01:28N 37°55' W 122°22'0 0.0
2018-Apr-23 00:58N 37°55' W 122°22'0 0.0
2018-Apr-23 00:28N 37°55' W 122°22'0 0.0
2018-Apr-22 23:58N 37°55' W 122°22'0 0.0
2018-Apr-22 23:28N 37°55' W 122°22'0 0.0
2018-Apr-22 22:58N 37°55' W 122°22'0 0.0
2018-Apr-22 22:28N 37°55' W 122°22'0 0.0
2018-Apr-22 21:58N 37°55' W 122°22'0 0.0
2018-Apr-22 21:28N 37°55' W 122°22'0 0.0
2018-Apr-22 20:58N 37°55' W 122°22'0 0.0
2018-Apr-22 20:28N 37°55' W 122°22'0 0.0
2018-Apr-22 19:58N 37°55' W 122°22'0 0.0
2018-Apr-22 19:28N 37°55' W 122°22'0 0.0
2018-Apr-22 18:58N 37°55' W 122°22'0 0.0
2018-Apr-22 18:25N 37°55' W 122°22'0 0.0
2018-Apr-22 17:58N 37°55' W 122°22'0 0.0
2018-Apr-22 17:28N 37°55' W 122°22'0 0.0
2018-Apr-22 16:58N 37°55' W 122°22'0 0.6
2018-Apr-22 16:30N 37°55' W 122°22'2 3.4
2018-Apr-22 16:00N 37°54' W 122°24'1 1.8
2018-Apr-22 15:28N 37°55' W 122°25'0 0.0
2018-Apr-22 14:58N 37°55' W 122°25'0 0.0
2018-Apr-22 14:28N 37°55' W 122°25'0 0.0
2018-Apr-22 13:58N 37°55' W 122°25'0 0.0
2018-Apr-22 13:25N 37°55' W 122°25'0 0.0
2018-Apr-22 12:58N 37°55' W 122°25'0 0.0
2018-Apr-22 12:28N 37°55' W 122°25'0 0.0
2018-Apr-22 11:58N 37°55' W 122°25'0 0.0
2018-Apr-22 11:28N 37°55' W 122°25'0 0.0
2018-Apr-22 10:58N 37°55' W 122°25'0 0.0
2018-Apr-22 10:28N 37°55' W 122°25'0 0.0
2018-Apr-22 09:58N 37°55' W 122°25'0 0.0
2018-Apr-22 09:28N 37°55' W 122°25'0 0.0
2018-Apr-22 08:58N 37°55' W 122°25'0 0.0
2018-Apr-22 08:28N 37°55' W 122°25'0 0.0
2018-Apr-22 07:58N 37°55' W 122°25'0 0.0
2018-Apr-22 07:28N 37°55' W 122°25'0 0.0
2018-Apr-22 06:58N 37°55' W 122°25'0 0.0
2018-Apr-22 06:28N 37°55' W 122°25'0 0.0
2018-Apr-22 05:58N 37°55' W 122°25'0 0.0
2018-Apr-22 05:28N 37°55' W 122°25'0 0.0
2018-Apr-22 04:58N 37°55' W 122°25'0 0.0
2018-Apr-22 04:28N 37°55' W 122°25'0 0.0
2018-Apr-22 03:58N 37°55' W 122°25'0 0.0
2018-Apr-22 03:28N 37°55' W 122°25'0 0.0
2018-Apr-22 02:58N 37°55' W 122°25'0 0.0
2018-Apr-22 02:28N 37°55' W 122°25'0 0.0
2018-Apr-22 01:58N 37°55' W 122°25'0 0.0
2018-Apr-22 01:28N 37°55' W 122°25'0 0.0
2018-Apr-22 00:58N 37°55' W 122°25'0 0.0
2018-Apr-22 00:28N 37°55' W 122°25'0 0.0
2018-Apr-21 23:58N 37°55' W 122°25'0 0.0
2018-Apr-21 23:28N 37°55' W 122°25'0 0.0
2018-Apr-21 22:58N 37°55' W 122°25'0 0.0
2018-Apr-21 22:28N 37°55' W 122°25'0 0.0
2018-Apr-21 21:55N 37°55' W 122°25'0 0.0
2018-Apr-21 21:28N 37°55' W 122°25'0 0.0
2018-Apr-21 20:58N 37°55' W 122°25'0 0.0
2018-Apr-21 20:28N 37°55' W 122°25'0 0.0
2018-Apr-21 19:58N 37°55' W 122°25'0 0.0
2018-Apr-21 19:28N 37°55' W 122°25'0 0.0
2018-Apr-21 18:58N 37°55' W 122°25'0 0.0
2018-Apr-21 18:28N 37°55' W 122°25'0 0.0
2018-Apr-21 17:58N 37°55' W 122°25'0 0.0
2018-Apr-21 17:28N 37°55' W 122°25'0 0.0
2018-Apr-21 16:58N 37°55' W 122°25'0 0.0
2018-Apr-21 16:25N 37°55' W 122°25'0 0.0
2018-Apr-21 15:55N 37°55' W 122°25'0 0.0
2018-Apr-21 15:25N 37°55' W 122°25'0 0.0
2018-Apr-21 14:58N 37°55' W 122°25'0 0.0
2018-Apr-21 14:25N 37°55' W 122°25'0 0.0
2018-Apr-21 13:55N 37°55' W 122°25'0 0.0
2018-Apr-21 13:28N 37°55' W 122°25'0 0.0
2018-Apr-21 12:58N 37°55' W 122°25'0 0.0
2018-Apr-21 12:28N 37°55' W 122°25'0 0.0
2018-Apr-21 11:58N 37°55' W 122°25'0 0.0
2018-Apr-21 11:28N 37°55' W 122°25'0 0.0
2018-Apr-21 10:58N 37°55' W 122°25'0 0.0
2018-Apr-21 10:28N 37°55' W 122°25'0 0.0
2018-Apr-21 09:58N 37°55' W 122°25'0 0.0
2018-Apr-21 09:28N 37°55' W 122°25'0 0.0
2018-Apr-21 08:58N 37°55' W 122°25'0 0.0
2018-Apr-21 08:28N 37°55' W 122°25'0 0.0
2018-Apr-21 07:58N 37°55' W 122°25'0 0.0
2018-Apr-21 07:28N 37°55' W 122°25'0 0.0
2018-Apr-21 06:58N 37°55' W 122°25'0 0.0
2018-Apr-21 06:28N 37°55' W 122°25'0 0.0
2018-Apr-21 05:58N 37°55' W 122°25'0 0.0
2018-Apr-21 05:28N 37°55' W 122°25'0 0.0
2018-Apr-21 04:58N 37°55' W 122°25'0 0.0
2018-Apr-21 04:28N 37°55' W 122°25'0 0.0
2018-Apr-21 03:58N 37°55' W 122°25'0 0.0
2018-Apr-21 03:28N 37°55' W 122°25'0 0.0
2018-Apr-21 02:58N 37°55' W 122°25'0 0.0
2018-Apr-21 02:28N 37°55' W 122°25'0 0.0
2018-Apr-21 01:58N 37°55' W 122°25'0 0.0
2018-Apr-21 01:30N 37°55' W 122°25'1 2.3
2018-Apr-21 01:00N 37°54' W 122°25'4 7.4
2018-Apr-21 00:30N 37°51' W 122°26'510.1
2018-Apr-21 00:00N 37°48' W 122°32'612.8
2018-Apr-20 23:31N 37°45' W 122°39'713.1
2018-Apr-20 23:00N 37°41' W 122°46'713.4
2018-Apr-20 22:30N 37°38' W 122°53'713.5
2018-Apr-20 22:00N 37°34' W 122°60'611.6
2018-Apr-20 21:30N 37°29' W 123°03'612.3
2018-Apr-20 21:00N 37°23' W 123°04'612.5
2018-Apr-20 20:30N 37°16' W 123°03'612.3
2018-Apr-20 19:59N 37°10' W 123°03'612.1
2018-Apr-20 19:28N 37°04' W 123°02'712.1
2018-Apr-20 18:54N 36°57' W 123°02'512.0
2018-Apr-20 18:30N 36°52' W 123°01'3 5.8
2018-Apr-20 17:59N 36°49' W 123°01'3 5.5
2018-Apr-20 17:29N 36°46' W 123°01'611.9
2018-Apr-20 16:58N 36°40' W 123°00'511.8
2018-Apr-20 16:30N 36°35' W 122°60'611.8
2018-Apr-20 15:59N 36°29' W 122°59'912.0
2018-Apr-20 15:16N 36°20' W 122°59'311.9
2018-Apr-20 15:00N 36°17' W 122°59'5011.8
2018-Apr-20 10:46N 35°31' W 122°33'312.1
2018-Apr-20 10:30N 35°29' W 122°31'612.1
2018-Apr-20 10:00N 35°23' W 122°27'4012.2
2018-Apr-20 06:43N 34°49' W 122°02'311.9
2018-Apr-20 06:29N 34°47' W 122°00'1011.9
2018-Apr-20 05:36N 34°38' W 121°53'511.9
2018-Apr-20 05:12N 34°34' W 121°50'311.8
2018-Apr-20 04:55N 34°31' W 121°48'511.9
2018-Apr-20 04:30N 34°27' W 121°45'912.1
2018-Apr-20 03:46N 34°19' W 121°40'712.0
2018-Apr-20 03:11N 34°13' W 121°35'212.1
2018-Apr-20 03:00N 34°11' W 121°34'812.2
2018-Apr-20 02:22N 34°05' W 121°29'512.6
2018-Apr-20 02:00N 34°03' W 121°24'612.4
2018-Apr-20 01:30N 34°00' W 121°17'612.4
2018-Apr-20 01:00N 33°58' W 121°10'612.4
2018-Apr-20 00:30N 33°55' W 121°03'612.2
2018-Apr-20 00:00N 33°53' W 120°57'611.6
2018-Apr-19 23:30N 33°50' W 120°50'611.5
2018-Apr-19 23:00N 33°48' W 120°44'611.6
2018-Apr-19 22:30N 33°46' W 120°38'712.1
2018-Apr-19 21:57N 33°43' W 120°30'612.6
2018-Apr-19 21:30N 33°41' W 120°24'712.4
2018-Apr-19 20:58N 33°39' W 120°17'612.1
2018-Apr-19 20:27N 33°39' W 120°09'612.1
2018-Apr-19 19:58N 33°39' W 120°02'612.4
2018-Apr-19 19:30N 33°39' W 119°55'612.1
2018-Apr-19 18:59N 33°40' W 119°48'611.9
2018-Apr-19 18:30N 33°40' W 119°41'612.2
2018-Apr-19 18:00N 33°41' W 119°34'612.8
2018-Apr-19 17:30N 33°42' W 119°26'613.0
2018-Apr-19 17:00N 33°42' W 119°18'713.0
2018-Apr-19 16:29N 33°43' W 119°10'612.7
2018-Apr-19 16:00N 33°44' W 119°03'611.9
2018-Apr-19 15:30N 33°44' W 118°56'611.7
2018-Apr-19 15:00N 33°44' W 118°49'910.5
2018-Apr-19 14:07N 33°49' W 118°40'12 0.3
2018-Apr-17 17:27N 33°55' W 118°27'5 2.7
2018-Apr-17 15:44N 33°51' W 118°30'2 7.3
2018-Apr-17 15:28N 33°49' W 118°30'4 7.7
2018-Apr-17 15:00N 33°45' W 118°30'3 6.7
2018-Apr-17 14:30N 33°42' W 118°28'5 7.2
2018-Apr-17 13:51N 33°40' W 118°24'3 7.2
2018-Apr-17 13:24N 33°38' W 118°20'4 8.6
2018-Apr-17 12:55N 33°39' W 118°15'4 8.5
2018-Apr-17 12:30N 33°42' W 118°13'0 0.5
2018-Apr-17 12:00N 33°42' W 118°13'0 0.0
2018-Apr-17 11:30N 33°42' W 118°13'0 0.0
2018-Apr-17 11:00N 33°42' W 118°13'0 0.1
2018-Apr-17 10:27N 33°42' W 118°13'0 0.0
2018-Apr-17 10:00N 33°42' W 118°13'0 0.1
2018-Apr-17 09:27N 33°42' W 118°13'0 0.0
2018-Apr-17 08:54N 33°42' W 118°13'0 0.1
2018-Apr-17 08:27N 33°42' W 118°13'0 0.1
2018-Apr-17 07:54N 33°42' W 118°13'0 0.0
2018-Apr-17 07:27N 33°42' W 118°13'0 0.0
2018-Apr-17 07:00N 33°42' W 118°13'0 0.1
2018-Apr-17 06:30N 33°42' W 118°13'0 0.1
2018-Apr-17 06:00N 33°42' W 118°13'0 0.1
2018-Apr-17 05:30N 33°42' W 118°13'0 0.1
2018-Apr-17 05:00N 33°42' W 118°13'0 0.0
2018-Apr-17 04:03N 33°42' W 118°13'0 0.4
2018-Apr-17 04:00N 33°42' W 118°13'0 0.0
2018-Apr-17 03:30N 33°42' W 118°13'0 0.0
2018-Apr-17 03:00N 33°42' W 118°13'0 0.0
2018-Apr-17 02:30N 33°42' W 118°13'0 0.1
2018-Apr-17 01:57N 33°42' W 118°13'0 0.1
2018-Apr-17 01:30N 33°42' W 118°13'0 0.0
2018-Apr-17 01:00N 33°42' W 118°13'0 0.1
2018-Apr-17 00:30N 33°42' W 118°13'0 0.0
2018-Apr-17 00:00N 33°42' W 118°13'0 0.0
2018-Apr-16 23:30N 33°42' W 118°13'0 0.0
2018-Apr-16 23:00N 33°42' W 118°13'0 0.0
2018-Apr-16 22:30N 33°42' W 118°13'0 0.0
2018-Apr-16 22:00N 33°42' W 118°13'0 0.0
2018-Apr-16 21:30N 33°42' W 118°13'0 0.0
2018-Apr-16 21:00N 33°42' W 118°13'0 0.0
2018-Apr-16 20:30N 33°42' W 118°13'0 0.0
2018-Apr-16 20:00N 33°42' W 118°13'0 0.0
2018-Apr-16 19:30N 33°42' W 118°13'0 0.0
2018-Apr-16 19:00N 33°42' W 118°13'0 0.0
2018-Apr-16 18:30N 33°42' W 118°13'0 0.0
2018-Apr-16 18:00N 33°42' W 118°13'0 0.0
2018-Apr-16 17:30N 33°42' W 118°13'0 0.0
2018-Apr-16 16:57N 33°42' W 118°13'0 0.0
2018-Apr-16 16:27N 33°42' W 118°13'0 0.0
2018-Apr-16 15:57N 33°42' W 118°13'0 0.0
2018-Apr-16 15:30N 33°42' W 118°13'0 0.0
2018-Apr-16 15:00N 33°42' W 118°13'0 0.1
2018-Apr-16 14:27N 33°42' W 118°13'0 0.1
2018-Apr-16 14:00N 33°42' W 118°13'0 0.0
2018-Apr-16 13:30N 33°42' W 118°13'0 0.0
2018-Apr-16 12:57N 33°42' W 118°13'0 0.0
2018-Apr-16 12:30N 33°42' W 118°13'0 0.0
2018-Apr-16 11:42N 33°42' W 118°13'0 0.0
2018-Apr-16 11:30N 33°42' W 118°13'0 0.0
2018-Apr-16 10:21N 33°42' W 118°13'0 0.1
2018-Apr-16 10:00N 33°42' W 118°13'0 0.0
2018-Apr-16 09:27N 33°42' W 118°13'0 0.1
2018-Apr-16 09:00N 33°42' W 118°13'0 0.1
2018-Apr-16 08:30N 33°42' W 118°13'0 0.0
2018-Apr-16 07:57N 33°42' W 118°13'0 0.0
2018-Apr-16 07:30N 33°42' W 118°13'0 0.0
2018-Apr-16 06:57N 33°42' W 118°13'0 0.1
2018-Apr-16 06:30N 33°42' W 118°13'0 0.0
2018-Apr-16 06:00N 33°42' W 118°13'0 0.0
2018-Apr-16 05:30N 33°42' W 118°13'0 0.0
2018-Apr-16 05:00N 33°42' W 118°13'0 0.0
2018-Apr-16 04:30N 33°42' W 118°13'0 0.0
2018-Apr-16 04:00N 33°42' W 118°13'0 0.0
2018-Apr-16 03:30N 33°42' W 118°13'0 0.0
2018-Apr-16 03:00N 33°42' W 118°13'0 0.0
2018-Apr-16 02:28N 33°42' W 118°13'0 0.0
2018-Apr-16 01:58N 33°42' W 118°13'  

Dump ship's entire track history